sensor_id;sensor_type;location;lat;lon;timestamp;P1;durP1;ratioP1;P2;durP2;ratioP2
16928;SDS011;8581;47.334;11.190;2022-12-11T00:02:01;6.37;;;4.90;;
16928;SDS011;8581;47.334;11.190;2022-12-11T00:04:33;5.33;;;4.83;;
16928;SDS011;8581;47.334;11.190;2022-12-11T00:07:04;5.67;;;5.17;;
16928;SDS011;8581;47.334;11.190;2022-12-11T00:09:36;5.43;;;4.93;;
16928;SDS011;8581;47.334;11.190;2022-12-11T00:12:08;5.50;;;5.00;;
16928;SDS011;8581;47.334;11.190;2022-12-11T00:14:39;5.57;;;5.00;;
16928;SDS011;8581;47.334;11.190;2022-12-11T00:17:11;6.07;;;5.50;;
16928;SDS011;8581;47.334;11.190;2022-12-11T00:19:42;5.97;;;5.37;;
16928;SDS011;8581;47.334;11.190;2022-12-11T00:22:15;5.67;;;5.17;;
16928;SDS011;8581;47.334;11.190;2022-12-11T00:24:46;5.63;;;5.13;;
16928;SDS011;8581;47.334;11.190;2022-12-11T00:27:17;6.37;;;5.77;;
16928;SDS011;8581;47.334;11.190;2022-12-11T00:29:49;6.10;;;5.50;;
16928;SDS011;8581;47.334;11.190;2022-12-11T00:32:20;7.40;;;5.60;;
16928;SDS011;8581;47.334;11.190;2022-12-11T00:34:52;6.20;;;5.60;;
16928;SDS011;8581;47.334;11.190;2022-12-11T00:37:23;6.10;;;5.50;;
16928;SDS011;8581;47.334;11.190;2022-12-11T00:39:55;6.40;;;5.80;;
16928;SDS011;8581;47.334;11.190;2022-12-11T00:42:27;5.57;;;5.07;;
16928;SDS011;8581;47.334;11.190;2022-12-11T00:44:58;6.27;;;5.67;;
16928;SDS011;8581;47.334;11.190;2022-12-11T00:47:30;5.53;;;5.03;;
16928;SDS011;8581;47.334;11.190;2022-12-11T00:50:01;5.90;;;5.30;;
16928;SDS011;8581;47.334;11.190;2022-12-11T00:52:33;5.63;;;5.10;;
16928;SDS011;8581;47.334;11.190;2022-12-11T00:55:05;5.63;;;5.13;;
16928;SDS011;8581;47.334;11.190;2022-12-11T00:57:37;6.00;;;5.40;;
16928;SDS011;8581;47.334;11.190;2022-12-11T01:00:09;6.00;;;5.47;;
16928;SDS011;8581;47.334;11.190;2022-12-11T01:02:41;6.90;;;6.07;;
16928;SDS011;8581;47.334;11.190;2022-12-11T01:05:13;6.10;;;5.50;;
16928;SDS011;8581;47.334;11.190;2022-12-11T01:07:45;7.50;;;6.33;;
16928;SDS011;8581;47.334;11.190;2022-12-11T01:10:16;6.93;;;6.23;;
16928;SDS011;8581;47.334;11.190;2022-12-11T01:12:58;6.67;;;5.97;;
16928;SDS011;8581;47.334;11.190;2022-12-11T01:15:29;7.03;;;6.33;;
16928;SDS011;8581;47.334;11.190;2022-12-11T01:18:00;6.30;;;5.70;;
16928;SDS011;8581;47.334;11.190;2022-12-11T01:20:31;6.03;;;5.43;;
16928;SDS011;8581;47.334;11.190;2022-12-11T01:23:03;6.83;;;6.13;;
16928;SDS011;8581;47.334;11.190;2022-12-11T01:25:35;6.80;;;6.10;;
16928;SDS011;8581;47.334;11.190;2022-12-11T01:28:06;6.67;;;5.97;;
16928;SDS011;8581;47.334;11.190;2022-12-11T01:30:39;6.57;;;5.97;;
16928;SDS011;8581;47.334;11.190;2022-12-11T01:33:09;6.43;;;5.80;;
16928;SDS011;8581;47.334;11.190;2022-12-11T01:35:41;6.77;;;6.17;;
16928;SDS011;8581;47.334;11.190;2022-12-11T01:38:13;6.50;;;5.83;;
16928;SDS011;8581;47.334;11.190;2022-12-11T01:40:45;6.80;;;6.20;;
16928;SDS011;8581;47.334;11.190;2022-12-11T01:43:17;7.67;;;6.87;;
16928;SDS011;8581;47.334;11.190;2022-12-11T01:45:48;6.87;;;6.17;;
16928;SDS011;8581;47.334;11.190;2022-12-11T01:48:21;7.83;;;6.83;;
16928;SDS011;8581;47.334;11.190;2022-12-11T01:50:54;7.03;;;6.20;;
16928;SDS011;8581;47.334;11.190;2022-12-11T01:53:26;7.13;;;6.43;;
16928;SDS011;8581;47.334;11.190;2022-12-11T01:55:56;7.17;;;6.07;;
16928;SDS011;8581;47.334;11.190;2022-12-11T01:58:29;6.90;;;6.20;;
16928;SDS011;8581;47.334;11.190;2022-12-11T02:01:00;7.27;;;6.03;;
16928;SDS011;8581;47.334;11.190;2022-12-11T02:03:31;5.83;;;5.23;;
16928;SDS011;8581;47.334;11.190;2022-12-11T02:06:03;5.73;;;5.13;;
16928;SDS011;8581;47.334;11.190;2022-12-11T02:08:35;6.07;;;5.47;;
16928;SDS011;8581;47.334;11.190;2022-12-11T02:11:10;6.40;;;5.80;;
16928;SDS011;8581;47.334;11.190;2022-12-11T02:13:45;5.53;;;5.03;;
16928;SDS011;8581;47.334;11.190;2022-12-11T02:16:18;5.20;;;4.70;;
16928;SDS011;8581;47.334;11.190;2022-12-11T02:18:51;6.60;;;5.23;;
16928;SDS011;8581;47.334;11.190;2022-12-11T02:21:24;5.50;;;4.93;;
16928;SDS011;8581;47.334;11.190;2022-12-11T02:24:00;5.07;;;4.57;;
16928;SDS011;8581;47.334;11.190;2022-12-11T02:26:49;6.17;;;5.57;;
16928;SDS011;8581;47.334;11.190;2022-12-11T02:29:34;5.80;;;5.20;;
16928;SDS011;8581;47.334;11.190;2022-12-11T02:32:09;5.50;;;5.00;;
16928;SDS011;8581;47.334;11.190;2022-12-11T02:34:42;5.37;;;4.87;;
16928;SDS011;8581;47.334;11.190;2022-12-11T02:37:15;4.63;;;4.17;;
16928;SDS011;8581;47.334;11.190;2022-12-11T02:39:44;5.10;;;4.60;;
16928;SDS011;8581;47.334;11.190;2022-12-11T02:42:16;5.30;;;4.80;;
16928;SDS011;8581;47.334;11.190;2022-12-11T02:44:48;5.20;;;4.70;;
16928;SDS011;8581;47.334;11.190;2022-12-11T02:47:19;5.30;;;4.80;;
16928;SDS011;8581;47.334;11.190;2022-12-11T02:49:51;5.50;;;4.97;;
16928;SDS011;8581;47.334;11.190;2022-12-11T02:52:22;5.63;;;5.10;;
16928;SDS011;8581;47.334;11.190;2022-12-11T02:54:54;6.30;;;5.50;;
16928;SDS011;8581;47.334;11.190;2022-12-11T02:57:30;6.50;;;5.03;;
16928;SDS011;8581;47.334;11.190;2022-12-11T03:00:00;5.83;;;5.23;;
16928;SDS011;8581;47.334;11.190;2022-12-11T03:02:31;5.40;;;4.90;;
16928;SDS011;8581;47.334;11.190;2022-12-11T03:05:04;5.27;;;4.77;;
16928;SDS011;8581;47.334;11.190;2022-12-11T03:07:36;5.87;;;5.07;;
16928;SDS011;8581;47.334;11.190;2022-12-11T03:10:08;5.80;;;5.20;;
16928;SDS011;8581;47.334;11.190;2022-12-11T03:12:39;6.17;;;5.57;;
16928;SDS011;8581;47.334;11.190;2022-12-11T03:15:12;5.97;;;5.37;;
16928;SDS011;8581;47.334;11.190;2022-12-11T03:17:45;7.23;;;5.17;;
16928;SDS011;8581;47.334;11.190;2022-12-11T03:20:23;6.17;;;5.50;;
16928;SDS011;8581;47.334;11.190;2022-12-11T03:23:02;5.43;;;4.93;;
16928;SDS011;8581;47.334;11.190;2022-12-11T03:25:43;5.90;;;5.30;;
16928;SDS011;8581;47.334;11.190;2022-12-11T03:28:17;5.27;;;4.77;;
16928;SDS011;8581;47.334;11.190;2022-12-11T03:30:47;5.93;;;5.33;;
16928;SDS011;8581;47.334;11.190;2022-12-11T03:33:24;5.50;;;4.90;;
16928;SDS011;8581;47.334;11.190;2022-12-11T03:36:00;5.53;;;4.93;;
16928;SDS011;8581;47.334;11.190;2022-12-11T03:38:30;5.57;;;5.07;;
16928;SDS011;8581;47.334;11.190;2022-12-11T03:41:01;5.43;;;4.87;;
16928;SDS011;8581;47.334;11.190;2022-12-11T03:43:33;7.53;;;5.13;;
16928;SDS011;8581;47.334;11.190;2022-12-11T03:46:05;5.50;;;5.00;;
16928;SDS011;8581;47.334;11.190;2022-12-11T03:48:38;5.73;;;5.00;;
16928;SDS011;8581;47.334;11.190;2022-12-11T03:51:08;5.30;;;4.80;;
16928;SDS011;8581;47.334;11.190;2022-12-11T03:53:39;4.80;;;4.30;;
16928;SDS011;8581;47.334;11.190;2022-12-11T03:56:11;5.10;;;4.60;;
16928;SDS011;8581;47.334;11.190;2022-12-11T03:58:42;4.80;;;4.30;;
16928;SDS011;8581;47.334;11.190;2022-12-11T04:01:14;4.60;;;4.20;;
16928;SDS011;8581;47.334;11.190;2022-12-11T04:03:46;5.07;;;4.23;;
16928;SDS011;8581;47.334;11.190;2022-12-11T04:06:17;4.50;;;4.10;;
16928;SDS011;8581;47.334;11.190;2022-12-11T04:08:49;4.03;;;3.63;;
16928;SDS011;8581;47.334;11.190;2022-12-11T04:11:20;4.03;;;3.70;;
16928;SDS011;8581;47.334;11.190;2022-12-11T04:13:58;4.23;;;3.83;;
16928;SDS011;8581;47.334;11.190;2022-12-11T04:16:44;4.00;;;3.60;;
16928;SDS011;8581;47.334;11.190;2022-12-11T04:19:16;4.27;;;3.87;;
16928;SDS011;8581;47.334;11.190;2022-12-11T04:21:53;4.37;;;3.97;;
16928;SDS011;8581;47.334;11.190;2022-12-11T04:24:30;4.83;;;4.00;;
16928;SDS011;8581;47.334;11.190;2022-12-11T04:27:02;4.37;;;3.87;;
16928;SDS011;8581;47.334;11.190;2022-12-11T04:29:34;4.20;;;3.80;;
16928;SDS011;8581;47.334;11.190;2022-12-11T04:32:05;3.90;;;3.50;;
16928;SDS011;8581;47.334;11.190;2022-12-11T04:34:37;3.77;;;3.40;;
16928;SDS011;8581;47.334;11.190;2022-12-11T04:37:08;4.13;;;3.57;;
16928;SDS011;8581;47.334;11.190;2022-12-11T04:39:40;4.23;;;3.83;;
16928;SDS011;8581;47.334;11.190;2022-12-11T04:42:12;4.80;;;3.90;;
16928;SDS011;8581;47.334;11.190;2022-12-11T04:44:43;4.60;;;4.10;;
16928;SDS011;8581;47.334;11.190;2022-12-11T04:47:15;4.23;;;3.83;;
16928;SDS011;8581;47.334;11.190;2022-12-11T04:49:46;4.33;;;3.93;;
16928;SDS011;8581;47.334;11.190;2022-12-11T04:52:18;4.37;;;3.90;;
16928;SDS011;8581;47.334;11.190;2022-12-11T04:54:50;4.23;;;3.83;;
16928;SDS011;8581;47.334;11.190;2022-12-11T04:57:21;4.80;;;4.20;;
16928;SDS011;8581;47.334;11.190;2022-12-11T04:59:53;4.83;;;4.30;;
16928;SDS011;8581;47.334;11.190;2022-12-11T05:02:25;4.07;;;3.67;;
16928;SDS011;8581;47.334;11.190;2022-12-11T05:04:56;4.33;;;3.93;;
16928;SDS011;8581;47.334;11.190;2022-12-11T05:07:28;4.43;;;3.97;;
16928;SDS011;8581;47.334;11.190;2022-12-11T05:09:59;4.37;;;3.93;;
16928;SDS011;8581;47.334;11.190;2022-12-11T05:12:31;5.73;;;4.90;;
16928;SDS011;8581;47.334;11.190;2022-12-11T05:15:02;5.43;;;4.80;;
16928;SDS011;8581;47.334;11.190;2022-12-11T05:17:35;4.30;;;3.90;;
16928;SDS011;8581;47.334;11.190;2022-12-11T05:20:07;5.20;;;4.70;;
16928;SDS011;8581;47.334;11.190;2022-12-11T05:22:39;5.17;;;4.67;;
16928;SDS011;8581;47.334;11.190;2022-12-11T05:25:11;5.17;;;4.67;;
16928;SDS011;8581;47.334;11.190;2022-12-11T05:27:43;5.93;;;4.87;;
16928;SDS011;8581;47.334;11.190;2022-12-11T05:30:14;5.07;;;4.57;;
16928;SDS011;8581;47.334;11.190;2022-12-11T05:32:46;5.97;;;5.37;;
16928;SDS011;8581;47.334;11.190;2022-12-11T05:35:17;5.23;;;4.73;;
16928;SDS011;8581;47.334;11.190;2022-12-11T05:37:49;4.97;;;4.47;;
16928;SDS011;8581;47.334;11.190;2022-12-11T05:40:21;5.73;;;4.97;;
16928;SDS011;8581;47.334;11.190;2022-12-11T05:42:52;5.47;;;4.93;;
16928;SDS011;8581;47.334;11.190;2022-12-11T05:45:24;5.30;;;4.80;;
16928;SDS011;8581;47.334;11.190;2022-12-11T05:47:55;5.80;;;5.23;;
16928;SDS011;8581;47.334;11.190;2022-12-11T05:50:27;6.70;;;5.47;;
16928;SDS011;8581;47.334;11.190;2022-12-11T05:52:59;5.53;;;4.87;;
16928;SDS011;8581;47.334;11.190;2022-12-11T05:55:33;5.60;;;4.90;;
16928;SDS011;8581;47.334;11.190;2022-12-11T05:58:05;6.03;;;5.43;;
16928;SDS011;8581;47.334;11.190;2022-12-11T06:00:36;6.60;;;5.90;;
16928;SDS011;8581;47.334;11.190;2022-12-11T06:03:08;5.70;;;5.10;;
16928;SDS011;8581;47.334;11.190;2022-12-11T06:05:40;6.20;;;5.07;;
16928;SDS011;8581;47.334;11.190;2022-12-11T06:08:11;6.07;;;5.30;;
16928;SDS011;8581;47.334;11.190;2022-12-11T06:10:44;5.30;;;4.80;;
16928;SDS011;8581;47.334;11.190;2022-12-11T06:13:16;5.60;;;4.57;;
16928;SDS011;8581;47.334;11.190;2022-12-11T06:15:48;5.13;;;4.50;;
16928;SDS011;8581;47.334;11.190;2022-12-11T06:18:19;6.27;;;5.37;;
16928;SDS011;8581;47.334;11.190;2022-12-11T06:20:51;5.33;;;4.60;;
16928;SDS011;8581;47.334;11.190;2022-12-11T06:23:23;5.73;;;5.00;;
16928;SDS011;8581;47.334;11.190;2022-12-11T06:25:54;5.50;;;4.90;;
16928;SDS011;8581;47.334;11.190;2022-12-11T06:28:26;5.87;;;5.20;;
16928;SDS011;8581;47.334;11.190;2022-12-11T06:30:58;5.90;;;5.30;;
16928;SDS011;8581;47.334;11.190;2022-12-11T06:33:29;6.33;;;5.73;;
16928;SDS011;8581;47.334;11.190;2022-12-11T06:36:03;5.63;;;5.13;;
16928;SDS011;8581;47.334;11.190;2022-12-11T06:38:35;5.27;;;4.77;;
16928;SDS011;8581;47.334;11.190;2022-12-11T06:41:07;5.83;;;5.20;;
16928;SDS011;8581;47.334;11.190;2022-12-11T06:43:39;5.30;;;4.80;;
16928;SDS011;8581;47.334;11.190;2022-12-11T06:46:11;5.30;;;4.80;;
16928;SDS011;8581;47.334;11.190;2022-12-11T06:48:42;5.83;;;5.23;;
16928;SDS011;8581;47.334;11.190;2022-12-11T06:51:15;5.40;;;4.90;;
16928;SDS011;8581;47.334;11.190;2022-12-11T06:53:50;5.20;;;4.70;;
16928;SDS011;8581;47.334;11.190;2022-12-11T06:56:22;5.60;;;5.00;;
16928;SDS011;8581;47.334;11.190;2022-12-11T06:58:53;4.93;;;4.53;;
16928;SDS011;8581;47.334;11.190;2022-12-11T07:01:26;5.50;;;5.00;;
16928;SDS011;8581;47.334;11.190;2022-12-11T07:03:57;5.47;;;4.87;;
16928;SDS011;8581;47.334;11.190;2022-12-11T07:06:28;5.40;;;4.90;;
16928;SDS011;8581;47.334;11.190;2022-12-11T07:09:02;5.40;;;4.90;;
16928;SDS011;8581;47.334;11.190;2022-12-11T07:11:32;5.57;;;4.97;;
16928;SDS011;8581;47.334;11.190;2022-12-11T07:14:03;5.60;;;5.00;;
16928;SDS011;8581;47.334;11.190;2022-12-11T07:16:35;5.47;;;4.97;;
16928;SDS011;8581;47.334;11.190;2022-12-11T07:19:06;5.90;;;5.07;;
16928;SDS011;8581;47.334;11.190;2022-12-11T07:21:38;5.43;;;4.93;;
16928;SDS011;8581;47.334;11.190;2022-12-11T07:24:10;5.97;;;5.33;;
16928;SDS011;8581;47.334;11.190;2022-12-11T07:26:41;5.57;;;5.00;;
16928;SDS011;8581;47.334;11.190;2022-12-11T07:29:13;5.57;;;5.07;;
16928;SDS011;8581;47.334;11.190;2022-12-11T07:31:44;5.33;;;4.70;;
16928;SDS011;8581;47.334;11.190;2022-12-11T07:34:16;5.30;;;4.80;;
16928;SDS011;8581;47.334;11.190;2022-12-11T07:36:48;5.17;;;4.70;;
16928;SDS011;8581;47.334;11.190;2022-12-11T07:39:19;5.23;;;4.73;;
16928;SDS011;8581;47.334;11.190;2022-12-11T07:41:51;5.53;;;4.93;;
16928;SDS011;8581;47.334;11.190;2022-12-11T07:44:22;5.70;;;5.20;;
16928;SDS011;8581;47.334;11.190;2022-12-11T07:46:54;5.60;;;5.03;;
16928;SDS011;8581;47.334;11.190;2022-12-11T07:49:26;5.23;;;4.73;;
16928;SDS011;8581;47.334;11.190;2022-12-11T07:51:57;5.77;;;5.20;;
16928;SDS011;8581;47.334;11.190;2022-12-11T07:54:29;6.63;;;5.93;;
16928;SDS011;8581;47.334;11.190;2022-12-11T07:57:00;6.10;;;5.50;;
16928;SDS011;8581;47.334;11.190;2022-12-11T07:59:32;6.07;;;5.33;;
16928;SDS011;8581;47.334;11.190;2022-12-11T08:02:04;6.67;;;6.03;;
16928;SDS011;8581;47.334;11.190;2022-12-11T08:04:35;6.40;;;5.80;;
16928;SDS011;8581;47.334;11.190;2022-12-11T08:07:07;6.47;;;5.80;;
16928;SDS011;8581;47.334;11.190;2022-12-11T08:09:39;7.00;;;5.97;;
16928;SDS011;8581;47.334;11.190;2022-12-11T08:12:11;6.07;;;5.47;;
16928;SDS011;8581;47.334;11.190;2022-12-11T08:14:42;6.63;;;5.70;;
16928;SDS011;8581;47.334;11.190;2022-12-11T08:17:13;6.00;;;5.40;;
16928;SDS011;8581;47.334;11.190;2022-12-11T08:19:45;6.20;;;5.27;;
16928;SDS011;8581;47.334;11.190;2022-12-11T08:22:17;7.00;;;5.67;;
16928;SDS011;8581;47.334;11.190;2022-12-11T08:24:48;6.40;;;5.73;;
16928;SDS011;8581;47.334;11.190;2022-12-11T08:27:20;6.07;;;5.47;;
16928;SDS011;8581;47.334;11.190;2022-12-11T08:29:51;5.27;;;4.77;;
16928;SDS011;8581;47.334;11.190;2022-12-11T08:32:23;6.53;;;5.93;;
16928;SDS011;8581;47.334;11.190;2022-12-11T08:34:54;6.30;;;5.70;;
16928;SDS011;8581;47.334;11.190;2022-12-11T08:37:26;5.60;;;5.10;;
16928;SDS011;8581;47.334;11.190;2022-12-11T08:39:58;5.70;;;5.10;;
16928;SDS011;8581;47.334;11.190;2022-12-11T08:42:29;6.03;;;5.37;;
16928;SDS011;8581;47.334;11.190;2022-12-11T08:45:01;6.27;;;5.67;;
16928;SDS011;8581;47.334;11.190;2022-12-11T08:47:32;6.03;;;5.50;;
16928;SDS011;8581;47.334;11.190;2022-12-11T08:50:04;5.87;;;5.27;;
16928;SDS011;8581;47.334;11.190;2022-12-11T08:52:36;6.43;;;5.83;;
16928;SDS011;8581;47.334;11.190;2022-12-11T08:55:08;5.90;;;5.07;;
16928;SDS011;8581;47.334;11.190;2022-12-11T08:57:40;5.60;;;5.10;;
16928;SDS011;8581;47.334;11.190;2022-12-11T09:00:12;6.23;;;5.63;;
16928;SDS011;8581;47.334;11.190;2022-12-11T09:02:44;5.13;;;4.63;;
16928;SDS011;8581;47.334;11.190;2022-12-11T09:05:15;5.47;;;4.97;;
16928;SDS011;8581;47.334;11.190;2022-12-11T09:07:47;5.10;;;4.60;;
16928;SDS011;8581;47.334;11.190;2022-12-11T09:10:19;5.20;;;4.70;;
16928;SDS011;8581;47.334;11.190;2022-12-11T09:12:50;6.33;;;5.40;;
16928;SDS011;8581;47.334;11.190;2022-12-11T09:15:22;5.53;;;5.03;;
16928;SDS011;8581;47.334;11.190;2022-12-11T09:17:54;5.07;;;4.57;;
16928;SDS011;8581;47.334;11.190;2022-12-11T09:20:25;5.07;;;4.57;;
16928;SDS011;8581;47.334;11.190;2022-12-11T09:22:57;4.97;;;4.47;;
16928;SDS011;8581;47.334;11.190;2022-12-11T09:25:28;5.13;;;4.63;;
16928;SDS011;8581;47.334;11.190;2022-12-11T09:28:00;4.80;;;4.30;;
16928;SDS011;8581;47.334;11.190;2022-12-11T09:30:32;5.07;;;4.57;;
16928;SDS011;8581;47.334;11.190;2022-12-11T09:33:03;5.03;;;4.53;;
16928;SDS011;8581;47.334;11.190;2022-12-11T09:35:35;4.60;;;4.20;;
16928;SDS011;8581;47.334;11.190;2022-12-11T09:38:06;4.90;;;4.40;;
16928;SDS011;8581;47.334;11.190;2022-12-11T09:40:39;4.63;;;4.23;;
16928;SDS011;8581;47.334;11.190;2022-12-11T09:43:17;5.00;;;4.50;;
16928;SDS011;8581;47.334;11.190;2022-12-11T09:45:45;4.63;;;4.17;;
16928;SDS011;8581;47.334;11.190;2022-12-11T09:48:17;4.80;;;4.30;;
16928;SDS011;8581;47.334;11.190;2022-12-11T09:50:49;4.63;;;4.13;;
16928;SDS011;8581;47.334;11.190;2022-12-11T09:53:24;4.13;;;3.60;;
16928;SDS011;8581;47.334;11.190;2022-12-11T09:55:59;4.83;;;4.27;;
16928;SDS011;8581;47.334;11.190;2022-12-11T09:58:52;4.43;;;3.97;;
16928;SDS011;8581;47.334;11.190;2022-12-11T10:01:27;4.20;;;3.80;;
16928;SDS011;8581;47.334;11.190;2022-12-11T10:04:19;4.20;;;3.80;;
16928;SDS011;8581;47.334;11.190;2022-12-11T10:07:10;4.43;;;3.60;;
16928;SDS011;8581;47.334;11.190;2022-12-11T10:09:48;4.00;;;3.60;;
16928;SDS011;8581;47.334;11.190;2022-12-11T10:12:27;4.17;;;3.73;;
16928;SDS011;8581;47.334;11.190;2022-12-11T10:17:52;4.27;;;3.87;;
16928;SDS011;8581;47.334;11.190;2022-12-11T10:20:24;5.03;;;4.20;;
16928;SDS011;8581;47.334;11.190;2022-12-11T10:22:59;4.33;;;3.87;;
16928;SDS011;8581;47.334;11.190;2022-12-11T10:25:35;4.27;;;3.87;;
16928;SDS011;8581;47.334;11.190;2022-12-11T10:28:10;5.10;;;4.60;;
16928;SDS011;8581;47.334;11.190;2022-12-11T10:30:46;4.50;;;4.10;;
16928;SDS011;8581;47.334;11.190;2022-12-11T10:33:19;4.70;;;4.07;;
16928;SDS011;8581;47.334;11.190;2022-12-11T10:35:52;5.20;;;4.60;;
16928;SDS011;8581;47.334;11.190;2022-12-11T10:38:28;4.33;;;3.93;;
16928;SDS011;8581;47.334;11.190;2022-12-11T10:41:00;4.80;;;4.30;;
16928;SDS011;8581;47.334;11.190;2022-12-11T10:43:34;5.93;;;4.70;;
16928;SDS011;8581;47.334;11.190;2022-12-11T10:46:11;5.10;;;4.10;;
16928;SDS011;8581;47.334;11.190;2022-12-11T10:48:44;4.80;;;4.23;;
16928;SDS011;8581;47.334;11.190;2022-12-11T10:51:32;5.83;;;4.53;;
16928;SDS011;8581;47.334;11.190;2022-12-11T10:54:17;5.00;;;4.50;;
16928;SDS011;8581;47.334;11.190;2022-12-11T10:56:47;5.17;;;4.67;;
16928;SDS011;8581;47.334;11.190;2022-12-11T10:59:22;5.03;;;4.53;;
16928;SDS011;8581;47.334;11.190;2022-12-11T11:01:56;5.37;;;4.47;;
16928;SDS011;8581;47.334;11.190;2022-12-11T11:04:29;5.03;;;4.53;;
16928;SDS011;8581;47.334;11.190;2022-12-11T11:07:01;4.93;;;4.33;;
16928;SDS011;8581;47.334;11.190;2022-12-11T11:09:33;4.80;;;4.30;;
16928;SDS011;8581;47.334;11.190;2022-12-11T11:12:16;4.73;;;4.27;;
16928;SDS011;8581;47.334;11.190;2022-12-11T11:14:42;4.60;;;4.20;;
16928;SDS011;8581;47.334;11.190;2022-12-11T11:17:14;4.50;;;4.10;;
16928;SDS011;8581;47.334;11.190;2022-12-11T11:19:46;4.13;;;3.73;;
16928;SDS011;8581;47.334;11.190;2022-12-11T11:22:17;3.97;;;3.57;;
16928;SDS011;8581;47.334;11.190;2022-12-11T11:24:53;4.30;;;3.90;;
16928;SDS011;8581;47.334;11.190;2022-12-11T11:27:28;4.30;;;3.90;;
16928;SDS011;8581;47.334;11.190;2022-12-11T11:30:00;4.00;;;3.47;;
16928;SDS011;8581;47.334;11.190;2022-12-11T11:32:33;3.73;;;3.43;;
16928;SDS011;8581;47.334;11.190;2022-12-11T11:35:05;4.20;;;3.80;;
16928;SDS011;8581;47.334;11.190;2022-12-11T11:37:57;4.33;;;3.93;;
16928;SDS011;8581;47.334;11.190;2022-12-11T11:43:33;4.27;;;3.83;;
16928;SDS011;8581;47.334;11.190;2022-12-11T11:46:05;4.00;;;3.60;;
16928;SDS011;8581;47.334;11.190;2022-12-11T11:48:44;4.17;;;3.77;;
16928;SDS011;8581;47.334;11.190;2022-12-11T11:51:33;4.23;;;3.83;;
16928;SDS011;8581;47.334;11.190;2022-12-11T11:54:18;4.23;;;3.83;;
16928;SDS011;8581;47.334;11.190;2022-12-11T11:56:54;4.10;;;3.70;;
16928;SDS011;8581;47.334;11.190;2022-12-11T11:59:27;4.47;;;3.93;;
16928;SDS011;8581;47.334;11.190;2022-12-11T12:01:57;3.97;;;3.57;;
16928;SDS011;8581;47.334;11.190;2022-12-11T12:04:31;4.03;;;3.63;;
16928;SDS011;8581;47.334;11.190;2022-12-11T12:07:06;3.50;;;3.20;;
16928;SDS011;8581;47.334;11.190;2022-12-11T12:09:44;6.23;;;4.40;;
16928;SDS011;8581;47.334;11.190;2022-12-11T12:12:27;3.80;;;3.43;;
16928;SDS011;8581;47.334;11.190;2022-12-11T12:15:00;3.67;;;3.33;;
16928;SDS011;8581;47.334;11.190;2022-12-11T12:17:39;3.90;;;3.60;;
16928;SDS011;8581;47.334;11.190;2022-12-11T12:20:18;3.70;;;3.30;;
16928;SDS011;8581;47.334;11.190;2022-12-11T12:22:58;3.73;;;3.23;;
16928;SDS011;8581;47.334;11.190;2022-12-11T12:25:31;3.73;;;3.43;;
16928;SDS011;8581;47.334;11.190;2022-12-11T12:30:59;4.07;;;3.60;;
16928;SDS011;8581;47.334;11.190;2022-12-11T12:36:14;3.37;;;3.03;;
16928;SDS011;8581;47.334;11.190;2022-12-11T12:41:30;3.33;;;3.03;;
16928;SDS011;8581;47.334;11.190;2022-12-11T12:43:59;3.80;;;3.40;;
16928;SDS011;8581;47.334;11.190;2022-12-11T12:46:33;4.23;;;3.50;;
16928;SDS011;8581;47.334;11.190;2022-12-11T12:49:02;3.43;;;3.13;;
16928;SDS011;8581;47.334;11.190;2022-12-11T12:51:33;3.57;;;3.27;;
16928;SDS011;8581;47.334;11.190;2022-12-11T12:54:05;5.00;;;3.60;;
16928;SDS011;8581;47.334;11.190;2022-12-11T12:56:36;3.33;;;3.03;;
16928;SDS011;8581;47.334;11.190;2022-12-11T13:01:49;2.97;;;2.63;;
16928;SDS011;8581;47.334;11.190;2022-12-11T13:04:28;3.53;;;3.13;;
16928;SDS011;8581;47.334;11.190;2022-12-11T13:06:59;4.40;;;3.20;;
16928;SDS011;8581;47.334;11.190;2022-12-11T13:09:30;4.07;;;2.97;;
16928;SDS011;8581;47.334;11.190;2022-12-11T13:12:02;3.47;;;2.80;;
16928;SDS011;8581;47.334;11.190;2022-12-11T13:14:33;3.00;;;2.73;;
16928;SDS011;8581;47.334;11.190;2022-12-11T13:22:55;3.30;;;3.00;;
16928;SDS011;8581;47.334;11.190;2022-12-11T13:25:47;2.63;;;2.43;;
16928;SDS011;8581;47.334;11.190;2022-12-11T13:31:27;3.53;;;2.97;;
16928;SDS011;8581;47.334;11.190;2022-12-11T13:33:55;2.63;;;2.43;;
16928;SDS011;8581;47.334;11.190;2022-12-11T13:36:29;3.30;;;3.00;;
16928;SDS011;8581;47.334;11.190;2022-12-11T13:39:03;3.70;;;3.20;;
16928;SDS011;8581;47.334;11.190;2022-12-11T13:41:35;3.10;;;2.70;;
16928;SDS011;8581;47.334;11.190;2022-12-11T13:44:06;3.07;;;2.87;;
16928;SDS011;8581;47.334;11.190;2022-12-11T13:46:38;3.00;;;2.80;;
16928;SDS011;8581;47.334;11.190;2022-12-11T13:49:17;2.80;;;2.60;;
16928;SDS011;8581;47.334;11.190;2022-12-11T13:51:49;2.93;;;2.73;;
16928;SDS011;8581;47.334;11.190;2022-12-11T13:54:15;3.10;;;2.80;;
16928;SDS011;8581;47.334;11.190;2022-12-11T13:59:24;2.93;;;2.70;;
16928;SDS011;8581;47.334;11.190;2022-12-11T14:01:55;5.87;;;5.20;;
16928;SDS011;8581;47.334;11.190;2022-12-11T14:04:26;8.10;;;7.30;;
16928;SDS011;8581;47.334;11.190;2022-12-11T14:06:58;2.90;;;2.60;;
16928;SDS011;8581;47.334;11.190;2022-12-11T14:09:29;3.23;;;2.93;;
16928;SDS011;8581;47.334;11.190;2022-12-11T14:12:01;3.37;;;2.80;;
16928;SDS011;8581;47.334;11.190;2022-12-11T14:14:38;3.07;;;2.70;;
16928;SDS011;8581;47.334;11.190;2022-12-11T14:17:09;2.93;;;2.70;;
16928;SDS011;8581;47.334;11.190;2022-12-11T14:19:37;2.73;;;2.50;;
16928;SDS011;8581;47.334;11.190;2022-12-11T14:22:15;3.10;;;2.63;;
16928;SDS011;8581;47.334;11.190;2022-12-11T14:24:46;3.50;;;3.20;;
16928;SDS011;8581;47.334;11.190;2022-12-11T14:27:13;2.93;;;2.70;;
16928;SDS011;8581;47.334;11.190;2022-12-11T14:29:44;2.83;;;2.60;;
16928;SDS011;8581;47.334;11.190;2022-12-11T14:32:26;3.80;;;3.40;;
16928;SDS011;8581;47.334;11.190;2022-12-11T14:35:03;5.23;;;4.37;;
16928;SDS011;8581;47.334;11.190;2022-12-11T14:37:35;5.00;;;3.50;;
16928;SDS011;8581;47.334;11.190;2022-12-11T14:40:09;3.80;;;3.30;;
16928;SDS011;8581;47.334;11.190;2022-12-11T14:42:45;3.57;;;3.27;;
16928;SDS011;8581;47.334;11.190;2022-12-11T14:45:20;3.30;;;3.00;;
16928;SDS011;8581;47.334;11.190;2022-12-11T14:47:51;3.97;;;3.10;;
16928;SDS011;8581;47.334;11.190;2022-12-11T14:50:25;3.60;;;3.30;;
16928;SDS011;8581;47.334;11.190;2022-12-11T14:52:58;4.03;;;3.53;;
16928;SDS011;8581;47.334;11.190;2022-12-11T14:55:30;3.63;;;3.33;;
16928;SDS011;8581;47.334;11.190;2022-12-11T14:58:02;4.10;;;3.70;;
16928;SDS011;8581;47.334;11.190;2022-12-11T15:00:34;3.50;;;3.20;;
16928;SDS011;8581;47.334;11.190;2022-12-11T15:03:06;3.53;;;3.23;;
16928;SDS011;8581;47.334;11.190;2022-12-11T15:05:47;3.97;;;3.20;;
16928;SDS011;8581;47.334;11.190;2022-12-11T15:08:16;4.17;;;3.77;;
16928;SDS011;8581;47.334;11.190;2022-12-11T15:11:13;3.67;;;3.33;;
16928;SDS011;8581;47.334;11.190;2022-12-11T15:13:48;4.13;;;3.73;;
16928;SDS011;8581;47.334;11.190;2022-12-11T15:16:21;4.30;;;3.90;;
16928;SDS011;8581;47.334;11.190;2022-12-11T15:18:53;3.70;;;3.40;;
16928;SDS011;8581;47.334;11.190;2022-12-11T15:21:28;4.37;;;3.30;;
16928;SDS011;8581;47.334;11.190;2022-12-11T15:23:59;4.83;;;4.00;;
16928;SDS011;8581;47.334;11.190;2022-12-11T15:26:32;4.77;;;4.27;;
16928;SDS011;8581;47.334;11.190;2022-12-11T15:29:04;5.05;;;4.55;;
16928;SDS011;8581;47.334;11.190;2022-12-11T15:31:34;4.40;;;3.80;;
16928;SDS011;8581;47.334;11.190;2022-12-11T15:34:20;4.03;;;3.67;;
16928;SDS011;8581;47.334;11.190;2022-12-11T15:36:37;6.37;;;4.33;;
16928;SDS011;8581;47.334;11.190;2022-12-11T15:39:09;4.47;;;4.07;;
16928;SDS011;8581;47.334;11.190;2022-12-11T15:41:41;4.27;;;3.77;;
16928;SDS011;8581;47.334;11.190;2022-12-11T15:44:15;4.97;;;4.47;;
16928;SDS011;8581;47.334;11.190;2022-12-11T15:46:44;5.10;;;4.60;;
16928;SDS011;8581;47.334;11.190;2022-12-11T15:49:15;4.90;;;4.40;;
16928;SDS011;8581;47.334;11.190;2022-12-11T15:51:47;5.10;;;4.60;;